Westview Chinook — VG3278 — position and weather

sailwx.info

Track history (hours):
 
Tides and Currents Weather Stations Pressure Air Temp Water Temp Dewpoint Dewpoint Depression Visibility Wind Speed Wind Dir Waves Ship Positions

Westview Chinook

Last reported at 2016-May-24 18:33 UTC. Time now 2016-May-24 19:28 UTC.
Position N 49°11' W 123°38'.

Length 15 m.

Type: Tug. MMSI: 316005622.

Date/timePositionNaut miles runAvg speedWind from/ knotsBaromVisibWave heightAir tempDewpointWater temp
2016-May-24 18:33N 49°11' W 123°38'7 7.3
2016-May-24 17:33N 49°08' W 123°28'8 8.2
2016-May-24 16:33N 49°07' W 123°15'9 8.9
2016-May-24 15:33N 49°09' W 123°02'0 0.1
2016-May-24 14:34N 49°09' W 123°02'8 7.5
2016-May-24 13:33N 49°13' W 122°52'4 4.3
2016-May-24 12:33N 49°14' W 122°46'0 0.0
2016-May-24 11:34N 49°14' W 122°46'0 0.0
2016-May-24 10:33N 49°14' W 122°46'0 0.0
2016-May-24 09:33N 49°14' W 122°46'0 0.0
2016-May-24 08:33N 49°14' W 122°46'7 6.8
2016-May-24 07:33N 49°12' W 122°56'6 5.7
2016-May-24 06:33N 49°12' W 123°05'7 6.9
2016-May-24 05:33N 49°14' W 123°15'0 0.1
2016-May-24 04:33N 49°14' W 123°15'5 5.3
2016-May-24 03:34N 49°12' W 123°07'2 1.8
2016-May-24 02:34N 49°12' W 123°04'3 2.5
2016-May-24 01:33N 49°12' W 123°08'6 6.4
2016-May-24 00:33N 49°15' W 123°16'10 9.9
2016-May-23 23:33N 49°14' W 123°32'10 9.6
2016-May-23 22:33N 49°13' W 123°46'6 2.9
2016-May-23 20:28N 49°09' W 123°53'4 4.3
2016-May-23 19:33N 49°13' W 123°51'7 7.0
2016-May-23 18:33N 49°15' W 123°40'7 7.1
2016-May-23 17:33N 49°17' W 123°30'7 7.3
2016-May-23 16:33N 49°18' W 123°19'7 7.3
2016-May-23 15:33N 49°19' W 123°08'4 4.0
2016-May-23 14:34N 49°18' W 123°02'0 0.0
2016-May-23 13:34N 49°18' W 123°02'0 0.0
2016-May-23 12:34N 49°18' W 123°02'0 0.0
2016-May-23 11:34N 49°18' W 123°02'0 0.0
2016-May-23 10:33N 49°18' W 123°02'0 0.0
2016-May-23 09:34N 49°18' W 123°02'0 0.0
2016-May-23 08:34N 49°18' W 123°02'0 0.0
2016-May-23 07:34N 49°18' W 123°02'0 0.0
2016-May-23 06:34N 49°18' W 123°02'0 0.0
2016-May-23 05:34N 49°18' W 123°02'0 0.0
2016-May-23 04:34N 49°18' W 123°02'0 0.0
2016-May-23 03:33N 49°18' W 123°02'0 0.0
2016-May-23 02:34N 49°18' W 123°02'0 0.0
2016-May-23 01:34N 49°18' W 123°02'0 0.0
2016-May-23 00:33N 49°18' W 123°02'0 0.1
2016-May-22 23:33N 49°18' W 123°02'3 3.5
2016-May-22 22:33N 49°18' W 123°07'6 6.3
2016-May-22 21:33N 49°14' W 123°15'5 5.0
2016-May-22 20:33N 49°12' W 123°08'2 2.4
2016-May-22 19:33N 49°12' W 123°05'6 5.8
2016-May-22 18:33N 49°12' W 122°56'7 6.7
2016-May-22 17:33N 49°14' W 122°46'0 0.0
2016-May-22 16:33N 49°14' W 122°46'0 0.0
2016-May-22 15:33N 49°14' W 122°46'5 4.7
2016-May-22 14:33N 49°13' W 122°53'6 6.0
2016-May-22 13:34N 49°09' W 123°00'0 0.1
2016-May-22 12:33N 49°09' W 123°00'6 5.8
2016-May-22 11:33N 49°07' W 123°08'5 4.7
2016-May-22 10:33N 49°07' W 123°15'3 3.2
2016-May-22 09:33N 49°06' W 123°20'5 5.4
2016-May-22 08:33N 49°09' W 123°27'6 5.7
2016-May-22 07:33N 49°13' W 123°34'5 5.0
2016-May-22 06:33N 49°16' W 123°40'5 4.8
2016-May-22 05:33N 49°19' W 123°46'8 3.8
2016-May-22 03:20N 49°23' W 123°56'8 4.4
2016-May-22 01:31N 49°28' W 124°06'11 5.0
2016-May-21 23:24N 49°34' W 124°20'4 5.2
2016-May-21 22:33N 49°36' W 124°26'5 5.1
2016-May-21 21:33N 49°40' W 124°31'1 0.1
2016-May-21 16:31N 49°40' W 124°31'8 7.0
2016-May-21 15:25N 49°34' W 124°22'13 7.0
2016-May-21 13:33N 49°27' W 124°05'7 7.0
2016-May-21 12:34N 49°23' W 123°56'7 6.8
2016-May-21 11:33N 49°20' W 123°47'7 7.0
2016-May-21 10:33N 49°16' W 123°38'7 6.6
2016-May-21 09:33N 49°12' W 123°30'7 7.2
2016-May-21 08:33N 49°08' W 123°21'7 6.9
2016-May-21 07:33N 49°07' W 123°10'7 7.1
2016-May-21 06:33N 49°09' W 123°00'0 0.0
2016-May-21 05:33N 49°09' W 123°00'0 0.1
2016-May-21 04:33N 49°09' W 123°00'0 0.0
2016-May-21 03:33N 49°09' W 123°00'0 0.0
2016-May-21 02:33N 49°09' W 123°00'0 0.0
2016-May-21 01:33N 49°09' W 123°00'1 0.6
2016-May-21 00:33N 49°09' W 123°01'3 3.4
2016-May-20 23:33N 49°11' W 122°58'0 0.1
2016-May-20 22:33N 49°11' W 122°58'5 4.9
2016-May-20 21:33N 49°12' W 123°05'3 2.7
2016-May-20 20:33N 49°12' W 123°09'4 3.6
2016-May-20 19:33N 49°14' W 123°14'4 4.5
2016-May-20 18:33N 49°12' W 123°08'9 8.5
2016-May-20 17:33N 49°12' W 122°55'1 1.5
2016-May-20 16:33N 49°13' W 122°53'5 4.6
2016-May-20 15:33N 49°10' W 122°58'3 3.4
2016-May-20 14:33N 49°08' W 123°03'5 4.6
2016-May-20 13:33N 49°07' W 123°10'4 3.7
2016-May-20 12:33N 49°07' W 123°15'5 4.9
2016-May-20 11:33N 49°06' W 123°23'7 6.5
2016-May-20 10:33N 49°09' W 123°32'7 6.5
2016-May-20 09:33N 49°11' W 123°41'6 6.3
2016-May-20 08:33N 49°13' W 123°50'4 4.1
2016-May-20 07:33N 49°09' W 123°53'6 5.7
2016-May-20 06:33N 49°13' W 123°47'9 9.3
2016-May-20 05:33N 49°14' W 123°33'9 9.2
2016-May-20 04:33N 49°15' W 123°19'9 9.2
2016-May-20 03:33N 49°12' W 123°06'0 0.0
2016-May-20 02:33N 49°12' W 123°06'3 3.2
2016-May-20 01:33N 49°13' W 123°11'4 3.9
2016-May-20 00:33N 49°15' W 123°16'4 3.8
2016-May-19 23:33N 49°17' W 123°21'5 4.9
2016-May-19 22:33N 49°19' W 123°27'5 4.7
2016-May-19 21:33N 49°21' W 123°34'5 4.8
2016-May-19 20:33N 49°23' W 123°40'5 5.4
2016-May-19 19:33N 49°26' W 123°48'6 5.6
2016-May-19 18:33N 49°29' W 123°55'6 5.7
2016-May-19 17:33N 49°33' W 124°01'6 5.7
2016-May-19 16:33N 49°38' W 124°05'6 6.0
2016-May-19 15:33N 49°44' W 124°03'5 4.7
2016-May-19 14:33N 49°47' W 123°57'3 2.5
2016-May-19 13:33N 49°45' W 123°54'1 1.4
2016-May-19 12:33N 49°46' W 123°56'0 0.3
2016-May-19 11:33N 49°46' W 123°57'1 0.9
2016-May-19 10:33N 49°45' W 123°56'2 1.6
2016-May-19 09:33N 49°47' W 123°56'7 7.2
2016-May-19 08:33N 49°42' W 124°04'6 6.3
2016-May-19 07:33N 49°36' W 124°04'6 5.9
2016-May-19 06:33N 49°31' W 123°59'6 6.1
2016-May-19 05:33N 49°27' W 123°52'6 6.0
2016-May-19 04:33N 49°24' W 123°43'6 5.9
2016-May-19 03:33N 49°22' W 123°35'7 6.8
2016-May-19 02:33N 49°19' W 123°26'7 7.1
2016-May-19 01:33N 49°15' W 123°16'6 6.5
2016-May-19 00:33N 49°12' W 123°08'0 0.2
2016-May-18 23:33N 49°12' W 123°08'1 1.5
2016-May-18 22:33N 49°12' W 123°06'0 0.0
2016-May-18 21:33N 49°12' W 123°06'0 0.0
2016-May-18 20:33N 49°12' W 123°06'0 0.0
2016-May-18 19:33N 49°12' W 123°06'0 0.0
2016-May-18 18:33N 49°12' W 123°06'0 0.0
2016-May-18 17:33N 49°12' W 123°06'1 0.8
2016-May-18 16:33N 49°12' W 123°05'1 0.9
2016-May-18 15:33N 49°12' W 123°03'3 3.2
2016-May-18 14:33N 49°12' W 123°08'1 1.5
2016-May-18 13:33N 49°12' W 123°06'0 0.5
2016-May-18 12:33N 49°12' W 123°05'2 1.7
2016-May-18 11:33N 49°12' W 123°08'4 4.3
2016-May-18 10:33N 49°14' W 123°14'4 4.0
2016-May-18 09:33N 49°16' W 123°18'6 5.8
2016-May-18 08:33N 49°19' W 123°27'6 5.7
2016-May-18 07:33N 49°21' W 123°34'5 5.2
2016-May-18 06:33N 49°24' W 123°42'5 5.5
2016-May-18 05:33N 49°26' W 123°49'6 5.7
2016-May-18 04:33N 49°29' W 123°56'6 5.5
2016-May-18 03:33N 49°34' W 124°02'5 5.4
2016-May-18 02:33N 49°38' W 124°05'4 4.3
2016-May-18 01:33N 49°43' W 124°03'5 5.3
2016-May-18 00:33N 49°46' W 123°58'3 3.0
2016-May-17 23:32N 49°45' W 123°54'3 2.7
2016-May-17 22:33N 49°47' W 123°56'3 2.6
2016-May-17 21:33N 49°45' W 123°54'0 0.2
2016-May-17 20:33N 49°45' W 123°54'0 0.0
2016-May-17 19:33N 49°45' W 123°54'0 0.0
2016-May-17 18:33N 49°45' W 123°54'0 0.0
2016-May-17 17:33N 49°45' W 123°54'3 0.9
2016-May-17 14:33N 49°47' W 123°55'5 4.9
2016-May-17 13:33N 49°45' W 124°02'8 7.9
2016-May-17 12:33N 49°37' W 124°05'8 7.9
2016-May-17 11:33N 49°29' W 124°03'4 4.3
2016-May-17 10:33N 49°25' W 124°01'5 4.8
2016-May-17 09:33N 49°28' W 124°07'5 5.2
2016-May-17 08:33N 49°31' W 124°13'5 5.2
2016-May-17 07:33N 49°34' W 124°20'5 5.3
2016-May-17 06:33N 49°36' W 124°27'5 5.2
2016-May-17 05:33N 49°40' W 124°33'2 2.3
2016-May-17 04:32N 49°42' W 124°34'1 0.9
2016-May-17 03:33N 49°42' W 124°33'0 0.0
2016-May-17 02:33N 49°42' W 124°33'0 0.0
2016-May-17 01:33N 49°42' W 124°33'0 0.0
2016-May-17 00:33N 49°42' W 124°33'1 0.9
2016-May-16 23:33N 49°42' W 124°34'2 1.8
2016-May-16 22:33N 49°41' W 124°32'1 1.0
2016-May-16 21:34N 49°40' W 124°32'3 3.4
2016-May-16 20:33N 49°38' W 124°28'8 7.5
2016-May-16 19:33N 49°33' W 124°19'8 7.7
2016-May-16 18:33N 49°29' W 124°09'8 8.1
2016-May-16 17:33N 49°27' W 123°57'8 8.1
2016-May-16 16:33N 49°24' W 123°45'8 7.9
2016-May-16 15:33N 49°21' W 123°34'7 7.3
2016-May-16 14:33N 49°19' W 123°23'8 7.7
2016-May-16 13:33N 49°17' W 123°11'2 2.2
2016-May-16 12:33N 49°16' W 123°08'0 0.0
2016-May-16 11:33N 49°16' W 123°08'0 0.0
2016-May-16 10:33N 49°16' W 123°08'2 2.0
2016-May-16 09:33N 49°17' W 123°11'6 5.8
2016-May-16 08:33N 49°14' W 123°18'7 7.1
2016-May-16 07:33N 49°06' W 123°18'8 7.7
2016-May-16 06:33N 49°07' W 123°06'6 5.6
2016-May-16 05:33N 49°10' W 122°58'6 5.6
2016-May-16 04:33N 49°13' W 122°52'1 1.1
2016-May-16 03:33N 49°13' W 122°54'6 5.7
2016-May-16 02:33N 49°09' W 123°00'3 3.2
2016-May-16 01:33N 49°10' W 122°56'7 6.5
2016-May-16 00:33N 49°13' W 122°46'5 4.6
2016-May-15 23:33N 49°12' W 122°40'6 5.6
2016-May-15 22:33N 49°13' W 122°48'7 6.6
2016-May-15 21:33N 49°10' W 122°57'2 2.3
2016-May-15 20:33N 49°09' W 123°00'0 0.0
2016-May-15 19:33N 49°09' W 123°00'0 0.0
2016-May-15 18:33N 49°09' W 123°00'0 0.2
2016-May-15 17:33N 49°09' W 123°00'6 5.9
2016-May-15 16:33N 49°07' W 123°09'2 2.1
2016-May-15 15:33N 49°07' W 123°11'6 5.6
2016-May-15 14:33N 49°07' W 123°20'4 4.3
2016-May-15 13:33N 49°10' W 123°25'4 4.3
2016-May-15 12:33N 49°13' W 123°29'5 4.7
2016-May-15 11:33N 49°16' W 123°35'4 4.3
2016-May-15 10:33N 49°18' W 123°41'4 4.0
2016-May-15 09:33N 49°20' W 123°46'3 3.5
2016-May-15 08:33N 49°22' W 123°50'3 3.1
2016-May-15 07:33N 49°23' W 123°54'3 2.9
2016-May-15 06:33N 49°25' W 123°58'3 3.1
2016-May-15 05:33N 49°27' W 124°02'3 3.5
2016-May-15 04:33N 49°28' W 124°07'4 4.0
2016-May-15 03:33N 49°31' W 124°12'4 4.4
2016-May-15 02:33N 49°33' W 124°18'5 5.0
2016-May-15 01:33N 49°35' W 124°24'5 5.3
2016-May-15 00:33N 49°39' W 124°30'4 4.4
2016-May-14 23:33N 49°42' W 124°34'1 0.9
2016-May-14 22:32N 49°42' W 124°33'0 0.0
2016-May-14 21:33N 49°42' W 124°33'0 0.0
2016-May-14 20:33N 49°42' W 124°33'0 0.0
2016-May-14 19:33N 49°42' W 124°33'  
Track history (hours):
 
Tides and Currents Weather Stations Pressure Air Temp Water Temp Dewpoint Dewpoint Depression Visibility Wind Speed Wind Dir Waves Ship Positions

Westview Chinook

Last reported at 2016-May-24 18:33 UTC. Time now 2016-May-24 19:28 UTC.
Position N 49°11' W 123°38'.

Length 15 m.

Type: Tug. MMSI: 316005622.

Date/timePositionNaut miles runAvg speedWind from/ knotsBaromVisibWave heightAir tempDewpointWater temp
2016-May-24 18:33N 49°11' W 123°38'7 7.3
2016-May-24 17:33N 49°08' W 123°28'8 8.2
2016-May-24 16:33N 49°07' W 123°15'9 8.9
2016-May-24 15:33N 49°09' W 123°02'0 0.1
2016-May-24 14:34N 49°09' W 123°02'8 7.5
2016-May-24 13:33N 49°13' W 122°52'4 4.3
2016-May-24 12:33N 49°14' W 122°46'0 0.0
2016-May-24 11:34N 49°14' W 122°46'0 0.0
2016-May-24 10:33N 49°14' W 122°46'0 0.0
2016-May-24 09:33N 49°14' W 122°46'0 0.0
2016-May-24 08:33N 49°14' W 122°46'7 6.8
2016-May-24 07:33N 49°12' W 122°56'6 5.7
2016-May-24 06:33N 49°12' W 123°05'7 6.9
2016-May-24 05:33N 49°14' W 123°15'0 0.1
2016-May-24 04:33N 49°14' W 123°15'5 5.3
2016-May-24 03:34N 49°12' W 123°07'2 1.8
2016-May-24 02:34N 49°12' W 123°04'3 2.5
2016-May-24 01:33N 49°12' W 123°08'6 6.4
2016-May-24 00:33N 49°15' W 123°16'10 9.9
2016-May-23 23:33N 49°14' W 123°32'10 9.6
2016-May-23 22:33N 49°13' W 123°46'6 2.9
2016-May-23 20:28N 49°09' W 123°53'4 4.3
2016-May-23 19:33N 49°13' W 123°51'7 7.0
2016-May-23 18:33N 49°15' W 123°40'7 7.1
2016-May-23 17:33N 49°17' W 123°30'7 7.3
2016-May-23 16:33N 49°18' W 123°19'7 7.3
2016-May-23 15:33N 49°19' W 123°08'4 4.0
2016-May-23 14:34N 49°18' W 123°02'0 0.0
2016-May-23 13:34N 49°18' W 123°02'0 0.0
2016-May-23 12:34N 49°18' W 123°02'0 0.0
2016-May-23 11:34N 49°18' W 123°02'0 0.0
2016-May-23 10:33N 49°18' W 123°02'0 0.0
2016-May-23 09:34N 49°18' W 123°02'0 0.0
2016-May-23 08:34N 49°18' W 123°02'0 0.0
2016-May-23 07:34N 49°18' W 123°02'0 0.0
2016-May-23 06:34N 49°18' W 123°02'0 0.0
2016-May-23 05:34N 49°18' W 123°02'0 0.0
2016-May-23 04:34N 49°18' W 123°02'0 0.0
2016-May-23 03:33N 49°18' W 123°02'0 0.0
2016-May-23 02:34N 49°18' W 123°02'0 0.0
2016-May-23 01:34N 49°18' W 123°02'0 0.0
2016-May-23 00:33N 49°18' W 123°02'0 0.1
2016-May-22 23:33N 49°18' W 123°02'3 3.5
2016-May-22 22:33N 49°18' W 123°07'6 6.3
2016-May-22 21:33N 49°14' W 123°15'5 5.0
2016-May-22 20:33N 49°12' W 123°08'2 2.4
2016-May-22 19:33N 49°12' W 123°05'6 5.8
2016-May-22 18:33N 49°12' W 122°56'7 6.7
2016-May-22 17:33N 49°14' W 122°46'0 0.0
2016-May-22 16:33N 49°14' W 122°46'0 0.0
2016-May-22 15:33N 49°14' W 122°46'5 4.7
2016-May-22 14:33N 49°13' W 122°53'6 6.0
2016-May-22 13:34N 49°09' W 123°00'0 0.1
2016-May-22 12:33N 49°09' W 123°00'6 5.8
2016-May-22 11:33N 49°07' W 123°08'5 4.7
2016-May-22 10:33N 49°07' W 123°15'3 3.2
2016-May-22 09:33N 49°06' W 123°20'5 5.4
2016-May-22 08:33N 49°09' W 123°27'6 5.7
2016-May-22 07:33N 49°13' W 123°34'5 5.0
2016-May-22 06:33N 49°16' W 123°40'5 4.8
2016-May-22 05:33N 49°19' W 123°46'8 3.8
2016-May-22 03:20N 49°23' W 123°56'8 4.4
2016-May-22 01:31N 49°28' W 124°06'11 5.0
2016-May-21 23:24N 49°34' W 124°20'4 5.2
2016-May-21 22:33N 49°36' W 124°26'5 5.1
2016-May-21 21:33N 49°40' W 124°31'1 0.1
2016-May-21 16:31N 49°40' W 124°31'8 7.0
2016-May-21 15:25N 49°34' W 124°22'13 7.0
2016-May-21 13:33N 49°27' W 124°05'7 7.0
2016-May-21 12:34N 49°23' W 123°56'7 6.8
2016-May-21 11:33N 49°20' W 123°47'7 7.0
2016-May-21 10:33N 49°16' W 123°38'7 6.6
2016-May-21 09:33N 49°12' W 123°30'7 7.2
2016-May-21 08:33N 49°08' W 123°21'7 6.9
2016-May-21 07:33N 49°07' W 123°10'7 7.1
2016-May-21 06:33N 49°09' W 123°00'0 0.0
2016-May-21 05:33N 49°09' W 123°00'0 0.1
2016-May-21 04:33N 49°09' W 123°00'0 0.0
2016-May-21 03:33N 49°09' W 123°00'0 0.0
2016-May-21 02:33N 49°09' W 123°00'0 0.0
2016-May-21 01:33N 49°09' W 123°00'1 0.6
2016-May-21 00:33N 49°09' W 123°01'3 3.4
2016-May-20 23:33N 49°11' W 122°58'0 0.1
2016-May-20 22:33N 49°11' W 122°58'5 4.9
2016-May-20 21:33N 49°12' W 123°05'3 2.7
2016-May-20 20:33N 49°12' W 123°09'4 3.6
2016-May-20 19:33N 49°14' W 123°14'4 4.5
2016-May-20 18:33N 49°12' W 123°08'9 8.5
2016-May-20 17:33N 49°12' W 122°55'1 1.5
2016-May-20 16:33N 49°13' W 122°53'5 4.6
2016-May-20 15:33N 49°10' W 122°58'3 3.4
2016-May-20 14:33N 49°08' W 123°03'5 4.6
2016-May-20 13:33N 49°07' W 123°10'4 3.7
2016-May-20 12:33N 49°07' W 123°15'5 4.9
2016-May-20 11:33N 49°06' W 123°23'7 6.5
2016-May-20 10:33N 49°09' W 123°32'7 6.5
2016-May-20 09:33N 49°11' W 123°41'6 6.3
2016-May-20 08:33N 49°13' W 123°50'4 4.1
2016-May-20 07:33N 49°09' W 123°53'6 5.7
2016-May-20 06:33N 49°13' W 123°47'9 9.3
2016-May-20 05:33N 49°14' W 123°33'9 9.2
2016-May-20 04:33N 49°15' W 123°19'9 9.2
2016-May-20 03:33N 49°12' W 123°06'0 0.0
2016-May-20 02:33N 49°12' W 123°06'3 3.2
2016-May-20 01:33N 49°13' W 123°11'4 3.9
2016-May-20 00:33N 49°15' W 123°16'4 3.8
2016-May-19 23:33N 49°17' W 123°21'5 4.9
2016-May-19 22:33N 49°19' W 123°27'5 4.7
2016-May-19 21:33N 49°21' W 123°34'5 4.8
2016-May-19 20:33N 49°23' W 123°40'5 5.4
2016-May-19 19:33N 49°26' W 123°48'6 5.6
2016-May-19 18:33N 49°29' W 123°55'6 5.7
2016-May-19 17:33N 49°33' W 124°01'6 5.7
2016-May-19 16:33N 49°38' W 124°05'6 6.0
2016-May-19 15:33N 49°44' W 124°03'5 4.7
2016-May-19 14:33N 49°47' W 123°57'3 2.5
2016-May-19 13:33N 49°45' W 123°54'1 1.4
2016-May-19 12:33N 49°46' W 123°56'0 0.3
2016-May-19 11:33N 49°46' W 123°57'1 0.9
2016-May-19 10:33N 49°45' W 123°56'2 1.6
2016-May-19 09:33N 49°47' W 123°56'7 7.2
2016-May-19 08:33N 49°42' W 124°04'6 6.3
2016-May-19 07:33N 49°36' W 124°04'6 5.9
2016-May-19 06:33N 49°31' W 123°59'6 6.1
2016-May-19 05:33N 49°27' W 123°52'6 6.0
2016-May-19 04:33N 49°24' W 123°43'6 5.9
2016-May-19 03:33N 49°22' W 123°35'7 6.8
2016-May-19 02:33N 49°19' W 123°26'7 7.1
2016-May-19 01:33N 49°15' W 123°16'6 6.5
2016-May-19 00:33N 49°12' W 123°08'0 0.2
2016-May-18 23:33N 49°12' W 123°08'1 1.5
2016-May-18 22:33N 49°12' W 123°06'0 0.0
2016-May-18 21:33N 49°12' W 123°06'0 0.0
2016-May-18 20:33N 49°12' W 123°06'0 0.0
2016-May-18 19:33N 49°12' W 123°06'0 0.0
2016-May-18 18:33N 49°12' W 123°06'0 0.0
2016-May-18 17:33N 49°12' W 123°06'1 0.8
2016-May-18 16:33N 49°12' W 123°05'1 0.9
2016-May-18 15:33N 49°12' W 123°03'3 3.2
2016-May-18 14:33N 49°12' W 123°08'1 1.5
2016-May-18 13:33N 49°12' W 123°06'0 0.5
2016-May-18 12:33N 49°12' W 123°05'2 1.7
2016-May-18 11:33N 49°12' W 123°08'4 4.3
2016-May-18 10:33N 49°14' W 123°14'4 4.0
2016-May-18 09:33N 49°16' W 123°18'6 5.8
2016-May-18 08:33N 49°19' W 123°27'6 5.7
2016-May-18 07:33N 49°21' W 123°34'5 5.2
2016-May-18 06:33N 49°24' W 123°42'5 5.5
2016-May-18 05:33N 49°26' W 123°49'6 5.7
2016-May-18 04:33N 49°29' W 123°56'6 5.5
2016-May-18 03:33N 49°34' W 124°02'5 5.4
2016-May-18 02:33N 49°38' W 124°05'4 4.3
2016-May-18 01:33N 49°43' W 124°03'5 5.3
2016-May-18 00:33N 49°46' W 123°58'3 3.0
2016-May-17 23:32N 49°45' W 123°54'3 2.7
2016-May-17 22:33N 49°47' W 123°56'3 2.6
2016-May-17 21:33N 49°45' W 123°54'0 0.2
2016-May-17 20:33N 49°45' W 123°54'0 0.0
2016-May-17 19:33N 49°45' W 123°54'0 0.0
2016-May-17 18:33N 49°45' W 123°54'0 0.0
2016-May-17 17:33N 49°45' W 123°54'3 0.9
2016-May-17 14:33N 49°47' W 123°55'5 4.9
2016-May-17 13:33N 49°45' W 124°02'8 7.9
2016-May-17 12:33N 49°37' W 124°05'8 7.9
2016-May-17 11:33N 49°29' W 124°03'4 4.3
2016-May-17 10:33N 49°25' W 124°01'5 4.8
2016-May-17 09:33N 49°28' W 124°07'5 5.2
2016-May-17 08:33N 49°31' W 124°13'5 5.2
2016-May-17 07:33N 49°34' W 124°20'5 5.3
2016-May-17 06:33N 49°36' W 124°27'5 5.2
2016-May-17 05:33N 49°40' W 124°33'2 2.3
2016-May-17 04:32N 49°42' W 124°34'1 0.9
2016-May-17 03:33N 49°42' W 124°33'0 0.0
2016-May-17 02:33N 49°42' W 124°33'0 0.0
2016-May-17 01:33N 49°42' W 124°33'0 0.0
2016-May-17 00:33N 49°42' W 124°33'1 0.9
2016-May-16 23:33N 49°42' W 124°34'2 1.8
2016-May-16 22:33N 49°41' W 124°32'1 1.0
2016-May-16 21:34N 49°40' W 124°32'3 3.4
2016-May-16 20:33N 49°38' W 124°28'8 7.5
2016-May-16 19:33N 49°33' W 124°19'8 7.7
2016-May-16 18:33N 49°29' W 124°09'8 8.1
2016-May-16 17:33N 49°27' W 123°57'8 8.1
2016-May-16 16:33N 49°24' W 123°45'8 7.9
2016-May-16 15:33N 49°21' W 123°34'7 7.3
2016-May-16 14:33N 49°19' W 123°23'8 7.7
2016-May-16 13:33N 49°17' W 123°11'2 2.2
2016-May-16 12:33N 49°16' W 123°08'0 0.0
2016-May-16 11:33N 49°16' W 123°08'0 0.0
2016-May-16 10:33N 49°16' W 123°08'2 2.0
2016-May-16 09:33N 49°17' W 123°11'6 5.8
2016-May-16 08:33N 49°14' W 123°18'7 7.1
2016-May-16 07:33N 49°06' W 123°18'8 7.7
2016-May-16 06:33N 49°07' W 123°06'6 5.6
2016-May-16 05:33N 49°10' W 122°58'6 5.6
2016-May-16 04:33N 49°13' W 122°52'1 1.1
2016-May-16 03:33N 49°13' W 122°54'6 5.7
2016-May-16 02:33N 49°09' W 123°00'3 3.2
2016-May-16 01:33N 49°10' W 122°56'7 6.5
2016-May-16 00:33N 49°13' W 122°46'5 4.6
2016-May-15 23:33N 49°12' W 122°40'6 5.6
2016-May-15 22:33N 49°13' W 122°48'7 6.6
2016-May-15 21:33N 49°10' W 122°57'2 2.3
2016-May-15 20:33N 49°09' W 123°00'0 0.0
2016-May-15 19:33N 49°09' W 123°00'0 0.0
2016-May-15 18:33N 49°09' W 123°00'0 0.2
2016-May-15 17:33N 49°09' W 123°00'6 5.9
2016-May-15 16:33N 49°07' W 123°09'2 2.1
2016-May-15 15:33N 49°07' W 123°11'6 5.6
2016-May-15 14:33N 49°07' W 123°20'4 4.3
2016-May-15 13:33N 49°10' W 123°25'4 4.3
2016-May-15 12:33N 49°13' W 123°29'5 4.7
2016-May-15 11:33N 49°16' W 123°35'4 4.3
2016-May-15 10:33N 49°18' W 123°41'4 4.0
2016-May-15 09:33N 49°20' W 123°46'3 3.5
2016-May-15 08:33N 49°22' W 123°50'3 3.1
2016-May-15 07:33N 49°23' W 123°54'3 2.9
2016-May-15 06:33N 49°25' W 123°58'3 3.1
2016-May-15 05:33N 49°27' W 124°02'3 3.5
2016-May-15 04:33N 49°28' W 124°07'4 4.0
2016-May-15 03:33N 49°31' W 124°12'4 4.4
2016-May-15 02:33N 49°33' W 124°18'5 5.0
2016-May-15 01:33N 49°35' W 124°24'5 5.3
2016-May-15 00:33N 49°39' W 124°30'4 4.4
2016-May-14 23:33N 49°42' W 124°34'1 0.9
2016-May-14 22:32N 49°42' W 124°33'0 0.0
2016-May-14 21:33N 49°42' W 124°33'0 0.0
2016-May-14 20:33N 49°42' W 124°33'0 0.0
2016-May-14 19:33N 49°42' W 124°33'  

Dump ship's entire track history